Time;durP1;ratioP1;P1;durP2;ratioP2;P2;SDS_P1;SDS_P2;PMS_P1;PMS_P2;Temp;Humidity;BMP_temperature;BMP_pressure;BME280_temperature;BME280_humidity;BME280_pressure;Samples;Min_cycle;Max_cycle;Signal;HPM_P1;HPM_P2
2023/09/08 00:02:00;;;;;;;4.50;4.10;;;24.10;99.90;;;;;;6231808;28;85067;-73
2023/09/08 00:05:03;;;;;;;4.40;4.00;;;24.10;99.90;;;;;;6229341;28;84028;-73
2023/09/08 00:08:06;;;;;;;4.35;3.95;;;24.00;99.90;;;;;;6232874;28;82411;-73
2023/09/08 00:11:08;;;;;;;4.90;3.60;;;24.10;99.90;;;;;;6230946;28;84059;-74
2023/09/08 00:14:10;;;;;;;6.28;4.68;;;24.10;99.90;;;;;;6221958;28;82533;-74
2023/09/08 00:17:12;;;;;;;4.15;3.80;;;24.00;99.90;;;;;;6232991;28;82893;-74
2023/09/08 00:20:16;;;;;;;4.10;3.70;;;24.00;99.90;;;;;;6230415;28;84313;-74
2023/09/08 00:23:18;;;;;;;3.80;3.50;;;24.00;99.90;;;;;;6232195;28;82418;-74
2023/09/08 00:26:20;;;;;;;4.30;3.90;;;24.00;99.90;;;;;;6230409;28;84234;-74
2023/09/08 00:29:22;;;;;;;3.88;3.58;;;24.00;99.90;;;;;;6231011;28;83051;-73
2023/09/08 00:32:24;;;;;;;4.97;4.38;;;24.00;99.90;;;;;;6233689;28;84900;-74
2023/09/08 00:35:27;;;;;;;4.28;3.88;;;24.00;99.90;;;;;;6237638;28;84066;-72
2023/09/08 00:38:29;;;;;;;4.15;3.75;;;24.00;99.90;;;;;;6235102;28;83901;-73
2023/09/08 00:41:33;;;;;;;4.28;3.88;;;24.00;99.90;;;;;;6236399;28;84066;-73
2023/09/08 00:44:35;;;;;;;4.25;3.85;;;24.00;99.90;;;;;;6228228;28;82891;-74
2023/09/08 00:47:37;;;;;;;4.38;3.97;;;24.00;99.90;;;;;;6235766;28;84316;-74
2023/09/08 00:50:41;;;;;;;3.95;3.55;;;24.00;99.90;;;;;;6229193;28;84359;-73
2023/09/08 00:53:43;;;;;;;4.15;3.85;;;24.00;99.90;;;;;;6236956;28;82321;-74
2023/09/08 00:56:47;;;;;;;4.43;4.03;;;24.00;99.90;;;;;;6234833;28;84076;-73
2023/09/08 00:59:49;;;;;;;4.25;3.85;;;24.00;99.90;;;;;;6235809;28;82935;-74
2023/09/08 01:02:51;;;;;;;4.50;4.10;;;24.00;99.90;;;;;;6234728;28;85160;-72
2023/09/08 01:05:56;;;;;;;4.20;3.80;;;24.00;99.90;;;;;;6227967;28;83879;-74
2023/09/08 01:08:58;;;;;;;4.97;4.30;;;24.00;99.90;;;;;;6228569;28;83994;-73
2023/09/08 01:12:01;;;;;;;4.03;3.67;;;24.00;99.90;;;;;;6235535;28;82948;-73
2023/09/08 01:15:05;;;;;;;4.30;3.90;;;24.00;99.90;;;;;;6234171;28;84303;-73
2023/09/08 01:18:07;;;;;;;3.92;3.60;;;24.00;99.90;;;;;;6234409;28;84127;-72
2023/09/08 01:21:50;;;;;;;4.07;3.70;;;24.00;99.90;;;;;;6234379;28;84452;-74
2023/09/08 01:25:17;;;;;;;4.22;3.83;;;23.90;99.90;;;;;;6235576;28;83290;-74
2023/09/08 01:28:21;;;;;;;4.22;3.83;;;24.00;99.90;;;;;;6234930;28;83939;-73
2023/09/08 01:31:23;;;;;;;4.10;3.70;;;23.90;99.90;;;;;;6234426;28;84371;-74
2023/09/08 01:34:25;;;;;;;4.03;3.63;;;24.00;99.90;;;;;;6233536;28;84984;-74
2023/09/08 01:37:27;;;;;;;6.10;4.60;;;24.00;99.90;;;;;;6235018;28;84030;-73
2023/09/08 01:40:31;;;;;;;4.50;4.15;;;24.00;99.90;;;;;;6235007;28;83953;-74
2023/09/08 01:43:33;;;;;;;4.30;3.90;;;24.00;99.90;;;;;;6233986;28;84013;-74
2023/09/08 01:46:35;;;;;;;4.30;3.90;;;23.90;99.90;;;;;;6234551;28;83979;-74
2023/09/08 01:49:36;;;;;;;4.43;4.03;;;23.90;99.90;;;;;;6221797;28;84375;-73
2023/09/08 01:52:38;;;;;;;4.05;3.72;;;24.00;99.90;;;;;;6234253;28;84044;-74
2023/09/08 01:55:42;;;;;;;4.20;3.90;;;24.00;99.90;;;;;;6233755;28;83261;-74
2023/09/08 01:58:44;;;;;;;4.63;4.18;;;23.90;99.90;;;;;;6234797;28;84008;-73
2023/09/08 02:01:46;;;;;;;4.45;4.05;;;23.90;99.90;;;;;;6223452;28;84187;-73
2023/09/08 02:04:48;;;;;;;4.13;3.80;;;23.90;99.90;;;;;;6221060;28;84861;-74
2023/09/08 02:07:50;;;;;;;4.45;4.00;;;23.90;99.90;;;;;;6233278;28;84131;-74
2023/09/08 02:10:54;;;;;;;3.85;3.50;;;23.90;99.90;;;;;;6233631;28;84319;-74
2023/09/08 02:13:56;;;;;;;4.22;3.80;;;23.90;99.90;;;;;;6234611;28;84530;-74
2023/09/08 02:16:58;;;;;;;5.65;4.38;;;23.90;99.90;;;;;;6231836;28;84025;-74
2023/09/08 02:20:00;;;;;;;4.35;3.95;;;24.00;99.90;;;;;;6235197;28;82923;-75
2023/09/08 02:23:06;;;;;;;4.32;3.92;;;23.90;99.90;;;;;;6234307;28;84501;-74
2023/09/08 02:26:10;;;;;;;4.40;4.00;;;23.90;99.90;;;;;;6232190;28;83255;-75
2023/09/08 02:29:13;;;;;;;3.92;3.63;;;23.90;99.90;;;;;;6235159;28;83898;-73
2023/09/08 02:32:15;;;;;;;4.35;3.95;;;23.90;99.90;;;;;;6234163;28;83775;-73
2023/09/08 02:35:17;;;;;;;4.40;4.00;;;23.90;99.90;;;;;;6233424;28;85009;-74
2023/09/08 02:38:19;;;;;;;5.10;4.30;;;23.90;99.90;;;;;;6232673;28;84052;-74
2023/09/08 02:41:23;;;;;;;4.25;3.85;;;23.90;99.90;;;;;;6233157;28;84039;-74
2023/09/08 02:44:26;;;;;;;4.82;4.40;;;23.90;99.90;;;;;;6232807;28;84112;-73
2023/09/08 02:47:28;;;;;;;4.55;4.05;;;23.90;99.90;;;;;;6231218;28;84068;-74
2023/09/08 02:50:30;;;;;;;4.07;3.72;;;23.90;99.90;;;;;;6233155;28;84079;-73
2023/09/08 02:53:32;;;;;;;4.22;3.92;;;23.90;99.90;;;;;;6233877;28;83910;-73
2023/09/08 02:56:36;;;;;;;4.38;3.97;;;23.90;99.90;;;;;;6230697;28;83056;-73
2023/09/08 02:59:38;;;;;;;4.22;3.83;;;23.90;99.90;;;;;;6233788;28;84029;-73
2023/09/08 03:02:40;;;;;;;4.43;4.03;;;23.90;99.90;;;;;;6233086;28;84125;-72
2023/09/08 03:05:42;;;;;;;4.60;4.20;;;23.90;99.90;;;;;;6232871;28;85300;-72
2023/09/08 03:08:44;;;;;;;4.68;4.28;;;23.90;99.90;;;;;;6232419;28;83008;-73
2023/09/08 03:11:47;;;;;;;4.22;3.83;;;23.90;99.90;;;;;;6233847;28;84583;-73
2023/09/08 03:14:49;;;;;;;4.68;4.28;;;23.90;99.90;;;;;;6233814;28;84102;-73
2023/09/08 03:17:51;;;;;;;4.43;4.03;;;23.90;99.90;;;;;;6233895;28;83984;-73
2023/09/08 03:20:53;;;;;;;4.45;4.05;;;23.90;99.90;;;;;;6232205;28;83942;-73
2023/09/08 03:23:55;;;;;;;4.57;4.18;;;23.90;99.90;;;;;;6233010;28;83993;-72
2023/09/08 03:26:58;;;;;;;5.18;4.68;;;23.90;99.90;;;;;;6233744;28;83232;-73
2023/09/08 03:30:00;;;;;;;4.90;4.50;;;23.90;99.90;;;;;;6234259;28;82861;-72
2023/09/08 03:33:02;;;;;;;4.60;4.20;;;23.90;99.90;;;;;;6232589;28;84504;-73
2023/09/08 03:36:05;;;;;;;5.63;4.80;;;23.90;99.90;;;;;;6229906;28;85000;-73
2023/09/08 03:39:09;;;;;;;4.80;4.40;;;23.90;99.90;;;;;;6233411;28;83836;-72
2023/09/08 03:42:12;;;;;;;4.82;4.43;;;23.90;99.90;;;;;;6232079;28;84248;-73
2023/09/08 03:45:14;;;;;;;5.00;4.50;;;23.90;99.90;;;;;;6232797;28;83975;-72
2023/09/08 03:48:16;;;;;;;5.05;4.65;;;23.80;99.90;;;;;;6232891;28;83214;-73
2023/09/08 03:51:18;;;;;;;5.30;4.80;;;23.90;99.90;;;;;;6232352;28;84133;-73
2023/09/08 03:54:20;;;;;;;5.07;4.68;;;23.80;99.90;;;;;;6232929;28;83341;-72
2023/09/08 03:57:23;;;;;;;4.80;4.40;;;23.90;99.90;;;;;;6231993;28;83286;-73
2023/09/08 04:00:25;;;;;;;4.93;4.43;;;23.80;99.90;;;;;;6233040;28;84362;-73
2023/09/08 04:03:27;;;;;;;5.10;4.60;;;23.90;99.90;;;;;;6233177;28;84013;-73
2023/09/08 04:06:29;;;;;;;5.22;4.72;;;23.90;99.90;;;;;;6233781;28;85053;-73
2023/09/08 04:09:31;;;;;;;4.88;4.47;;;23.90;99.90;;;;;;6236066;28;84029;-73
2023/09/08 04:12:35;;;;;;;5.32;4.82;;;23.80;99.90;;;;;;6233541;28;83264;-72
2023/09/08 04:15:37;;;;;;;5.20;4.70;;;23.90;99.90;;;;;;6236742;28;84421;-72
2023/09/08 04:18:39;;;;;;;5.90;5.15;;;23.80;99.90;;;;;;6224117;28;83982;-73
2023/09/08 04:21:42;;;;;;;5.40;4.90;;;23.90;99.90;;;;;;6236792;28;84431;-72
2023/09/08 04:24:44;;;;;;;5.70;5.00;;;23.80;99.90;;;;;;6225467;28;84291;-72
2023/09/08 04:27:47;;;;;;;4.90;4.50;;;23.90;99.90;;;;;;6236321;28;83416;-73
2023/09/08 04:30:49;;;;;;;5.25;4.75;;;23.80;99.90;;;;;;6237389;28;84915;-72
2023/09/08 04:33:53;;;;;;;4.80;4.40;;;23.80;99.90;;;;;;6236569;28;84249;-71
2023/09/08 04:36:57;;;;;;;5.47;4.97;;;23.80;99.90;;;;;;6235983;28;84977;-72
2023/09/08 04:39:59;;;;;;;5.30;4.80;;;23.80;99.90;;;;;;6232912;28;84119;-73
2023/09/08 04:43:03;;;;;;;5.65;5.07;;;23.80;99.90;;;;;;6234014;28;83970;-74
2023/09/08 04:46:05;;;;;;;5.80;5.20;;;23.80;99.90;;;;;;6236211;27;84450;-73
2023/09/08 04:49:07;;;;;;;5.70;5.18;;;23.80;99.90;;;;;;6236258;28;84485;-73
2023/09/08 04:52:11;;;;;;;5.18;4.68;;;23.80;99.90;;;;;;6232333;28;84028;-77
2023/09/08 04:55:13;;;;;;;5.50;5.00;;;23.80;99.90;;;;;;6233944;28;84307;-74
2023/09/08 04:58:16;;;;;;;5.70;5.20;;;23.80;99.90;;;;;;6233788;28;82506;-74
2023/09/08 05:01:18;;;;;;;5.25;4.75;;;23.80;99.90;;;;;;6233985;28;83955;-76
2023/09/08 05:04:20;;;;;;;6.07;5.50;;;23.90;99.90;;;;;;6235335;28;83997;-75
2023/09/08 05:07:22;;;;;;;6.10;5.40;;;23.90;99.90;;;;;;6234256;28;83892;-75
2023/09/08 05:10:24;;;;;;;4.88;4.43;;;23.90;99.90;;;;;;6233769;28;84291;-75
2023/09/08 05:13:28;;;;;;;5.95;5.45;;;23.90;99.90;;;;;;6234695;28;83217;-74
2023/09/08 05:16:39;;;;;;;5.70;5.20;;;23.90;99.90;;;;;;6233045;28;84317;-74
2023/09/08 05:19:41;;;;;;;5.05;4.65;;;23.90;99.90;;;;;;6234676;28;82930;-75
2023/09/08 05:22:43;;;;;;;5.57;5.07;;;23.90;99.90;;;;;;6235556;28;84108;-76
2023/09/08 05:25:46;;;;;;;5.47;4.97;;;23.90;99.90;;;;;;6234455;28;84103;-75
2023/09/08 05:28:49;;;;;;;5.40;4.90;;;24.00;99.90;;;;;;6234659;28;82104;-74
2023/09/08 05:31:51;;;;;;;5.82;5.32;;;24.00;99.90;;;;;;6231116;28;82922;-75
2023/09/08 05:34:53;;;;;;;5.60;5.10;;;24.00;99.90;;;;;;6234083;28;84110;-75
2023/09/08 05:37:55;;;;;;;6.03;5.28;;;24.00;99.90;;;;;;6227604;28;85276;-74
2023/09/08 05:40:57;;;;;;;5.80;5.20;;;24.00;99.50;;;;;;6233603;28;84049;-75
2023/09/08 05:44:01;;;;;;;5.35;4.93;;;24.00;98.60;;;;;;6234670;28;83208;-75
2023/09/08 05:47:03;;;;;;;5.75;5.25;;;24.00;98.10;;;;;;6234537;28;84020;-75
2023/09/08 05:50:06;;;;;;;6.03;5.38;;;24.00;98.20;;;;;;6233552;28;83814;-76
2023/09/08 05:53:08;;;;;;;5.97;5.45;;;24.00;97.50;;;;;;6234426;28;84033;-75
2023/09/08 05:56:11;;;;;;;6.47;5.50;;;24.00;97.20;;;;;;6232126;28;84228;-76
2023/09/08 05:59:14;;;;;;;6.78;5.38;;;24.00;97.00;;;;;;6230748;28;82768;-76
2023/09/08 06:02:19;;;;;;;7.22;5.50;;;23.90;97.10;;;;;;6231363;28;83946;-74
2023/09/08 06:05:21;;;;;;;5.93;5.32;;;24.00;96.70;;;;;;6227240;28;82985;-74
2023/09/08 06:08:24;;;;;;;6.32;5.47;;;23.90;96.40;;;;;;6234930;28;84160;-76
2023/09/08 06:11:26;;;;;;;5.82;5.28;;;23.90;96.30;;;;;;6232976;28;84107;-75
2023/09/08 06:14:29;;;;;;;5.72;5.22;;;23.90;96.10;;;;;;6223576;28;82927;-74
2023/09/08 06:17:31;;;;;;;5.55;5.05;;;23.90;96.10;;;;;;6233186;28;82837;-74
2023/09/08 06:20:33;;;;;;;6.35;5.10;;;23.90;96.00;;;;;;6233987;28;84064;-76
2023/09/08 06:23:35;;;;;;;6.43;5.35;;;23.90;96.10;;;;;;6233623;28;84314;-76
2023/09/08 06:26:38;;;;;;;5.97;5.20;;;23.90;95.90;;;;;;6233654;28;84092;-76
2023/09/08 06:29:43;;;;;;;6.32;5.05;;;23.90;95.70;;;;;;6233378;28;83344;-76
2023/09/08 06:32:45;;;;;;;6.97;5.10;;;23.90;95.40;;;;;;6230859;28;84343;-76
2023/09/08 06:35:48;;;;;;;7.22;5.28;;;23.90;95.20;;;;;;6230926;28;82930;-75
2023/09/08 06:38:50;;;;;;;6.80;5.43;;;23.90;95.40;;;;;;6232312;28;85308;-76
2023/09/08 06:41:52;;;;;;;5.88;5.20;;;23.90;95.50;;;;;;6233113;28;83958;-75
2023/09/08 06:44:55;;;;;;;6.00;5.05;;;23.80;94.40;;;;;;6227665;28;84029;-76
2023/09/08 06:47:58;;;;;;;6.38;4.95;;;23.80;94.50;;;;;;6231322;28;83235;-76
2023/09/08 06:51:00;;;;;;;6.95;5.80;;;23.80;94.80;;;;;;6229661;28;84545;-76
2023/09/08 06:54:02;;;;;;;5.75;4.88;;;23.70;93.90;;;;;;6233842;28;84156;-76
2023/09/08 06:57:05;;;;;;;6.07;4.93;;;23.70;93.90;;;;;;6230919;28;84983;-76
2023/09/08 07:00:11;;;;;;;6.20;5.10;;;23.70;94.00;;;;;;6231659;28;83347;-76
2023/09/08 07:03:13;;;;;;;5.72;5.13;;;23.70;94.20;;;;;;6232884;28;83139;-75
2023/09/08 07:06:15;;;;;;;6.05;5.45;;;23.70;93.50;;;;;;6232472;28;84038;-76
2023/09/08 07:09:17;;;;;;;6.88;5.40;;;23.60;93.00;;;;;;6232249;28;85015;-75
2023/09/08 07:12:19;;;;;;;5.78;5.18;;;23.50;92.80;;;;;;6232359;28;83941;-75
2023/09/08 07:15:22;;;;;;;5.72;5.15;;;23.30;92.60;;;;;;6231026;28;83966;-75
2023/09/08 07:18:24;;;;;;;5.82;5.22;;;23.20;93.20;;;;;;6232536;28;84059;-75
2023/09/08 07:21:26;;;;;;;8.70;5.82;;;23.10;93.90;;;;;;6232031;28;84135;-77
2023/09/08 07:24:28;;;;;;;6.95;5.80;;;23.10;93.80;;;;;;6232474;28;84063;-76
2023/09/08 07:27:30;;;;;;;7.15;5.53;;;23.00;93.70;;;;;;6230841;28;83849;-76
2023/09/08 07:30:34;;;;;;;8.48;5.90;;;22.90;94.00;;;;;;6230853;28;83615;-76
2023/09/08 07:33:36;;;;;;;8.63;5.80;;;22.90;94.20;;;;;;6229111;28;83226;-77
2023/09/08 07:36:38;;;;;;;6.50;5.13;;;22.90;94.20;;;;;;6232290;28;83976;-76
2023/09/08 07:39:41;;;;;;;6.20;5.60;;;22.90;94.80;;;;;;6231557;28;84927;-76
2023/09/08 07:42:43;;;;;;;6.43;5.00;;;22.90;95.00;;;;;;6236543;28;84215;-76
2023/09/08 07:45:46;;;;;;;5.90;5.30;;;23.00;95.60;;;;;;6234664;28;84016;-76
2023/09/08 07:48:48;;;;;;;7.90;5.43;;;23.00;95.70;;;;;;6233966;28;83477;-75
2023/09/08 07:51:50;;;;;;;6.80;5.88;;;23.00;96.10;;;;;;6236000;28;84357;-76
2023/09/08 07:54:52;;;;;;;5.90;5.30;;;23.00;95.00;;;;;;6237551;28;83989;-76
2023/09/08 07:57:54;;;;;;;6.03;5.25;;;23.00;95.30;;;;;;6236267;28;84341;-76
2023/09/08 08:00:58;;;;;;;6.05;5.25;;;23.00;95.00;;;;;;6237514;28;83276;-75
2023/09/08 08:04:00;;;;;;;10.65;5.00;;;23.00;95.00;;;;;;6235128;28;82963;-76
2023/09/08 08:07:03;;;;;;;7.70;5.70;;;23.00;95.60;;;;;;6236374;28;84047;-77
2023/09/08 08:10:05;;;;;;;7.22;5.65;;;23.00;95.80;;;;;;6234051;28;85793;-77
2023/09/08 08:13:07;;;;;;;7.05;5.82;;;23.00;95.70;;;;;;6236885;28;84195;-77
2023/09/08 08:16:12;;;;;;;8.45;5.18;;;23.00;95.60;;;;;;6238015;28;84823;-76
2023/09/08 08:19:14;;;;;;;6.35;5.60;;;23.00;95.80;;;;;;6235714;28;84041;-76
2023/09/08 08:22:16;;;;;;;5.95;5.22;;;23.00;94.90;;;;;;6236272;28;84549;-77
2023/09/08 08:25:18;;;;;;;5.75;5.20;;;23.00;95.00;;;;;;6235397;28;84008;-75
2023/09/08 08:28:20;;;;;;;8.55;5.85;;;23.00;95.30;;;;;;6235583;28;84189;-76
2023/09/08 08:31:24;;;;;;;9.55;5.25;;;23.00;95.50;;;;;;6238040;28;83423;-75
2023/09/08 08:34:26;;;;;;;6.78;5.18;;;23.00;95.40;;;;;;6236967;28;84067;-76
2023/09/08 08:37:28;;;;;;;5.85;4.70;;;23.00;94.70;;;;;;6237005;28;83972;-76
2023/09/08 08:40:30;;;;;;;7.32;5.07;;;23.00;95.00;;;;;;6235309;28;85040;-75
2023/09/08 08:43:33;;;;;;;6.18;5.07;;;23.00;95.00;;;;;;6235586;28;83968;-76
2023/09/08 08:46:38;;;;;;;6.45;5.40;;;23.00;95.60;;;;;;6236787;28;84018;-74
2023/09/08 08:49:46;;;;;;;5.78;5.13;;;23.00;94.60;;;;;;6225639;28;83988;-75
2023/09/08 08:52:48;;;;;;;7.65;5.30;;;23.00;94.90;;;;;;6223902;28;83221;-75
2023/09/08 08:55:53;;;;;;;5.70;4.40;;;22.90;95.20;;;;;;6233012;28;82759;-75
2023/09/08 08:58:55;;;;;;;6.03;4.93;;;23.00;95.60;;;;;;6235487;28;84207;-74
2023/09/08 09:02:00;;;;;;;5.95;5.07;;;23.00;95.80;;;;;;6235796;28;83102;-74
2023/09/08 09:05:02;;;;;;;6.90;5.10;;;23.00;96.10;;;;;;6235851;28;82102;-75
2023/09/08 09:08:06;;;;;;;5.80;5.20;;;23.00;96.20;;;;;;6235089;28;84318;-76
2023/09/08 09:11:08;;;;;;;5.68;5.18;;;23.10;96.30;;;;;;6233804;28;84909;-76
2023/09/08 09:14:10;;;;;;;6.00;5.15;;;23.00;96.30;;;;;;6233570;28;82941;-76
2023/09/08 09:17:14;;;;;;;5.63;5.13;;;23.00;96.10;;;;;;6236224;28;82992;-75
2023/09/08 09:20:18;;;;;;;7.70;6.00;;;23.00;97.00;;;;;;6223899;28;83923;-76
2023/09/08 09:23:28;;;;;;;7.20;5.55;;;23.00;95.70;;;;;;6228629;28;84560;-76
2023/09/08 09:26:30;;;;;;;6.00;5.20;;;23.00;95.60;;;;;;6228363;28;84058;-76
2023/09/08 09:29:32;;;;;;;5.90;5.30;;;23.00;95.50;;;;;;6234847;28;83207;-74
2023/09/08 09:32:36;;;;;;;6.47;5.88;;;22.90;96.10;;;;;;6235549;28;83614;-76
2023/09/08 09:35:42;;;;;;;5.72;5.18;;;22.90;96.50;;;;;;6234548;28;82003;-76
2023/09/08 09:38:44;;;;;;;5.60;5.10;;;22.90;96.80;;;;;;6234812;28;84103;-75
2023/09/08 09:41:47;;;;;;;6.00;5.40;;;22.80;97.10;;;;;;6233401;28;84014;-76
2023/09/08 09:44:51;;;;;;;6.85;5.57;;;22.90;96.80;;;;;;6233554;28;84534;-76
2023/09/08 09:47:54;;;;;;;5.93;5.38;;;22.90;97.20;;;;;;6234203;28;83762;-77
2023/09/08 09:50:56;;;;;;;6.53;5.78;;;22.90;98.00;;;;;;6232748;28;83981;-76
2023/09/08 09:53:58;;;;;;;6.55;5.60;;;22.90;98.00;;;;;;6232932;28;84151;-75
2023/09/08 09:57:01;;;;;;;7.32;5.68;;;22.90;98.00;;;;;;6231859;28;84365;-76
2023/09/08 10:00:06;;;;;;;6.15;5.43;;;22.90;98.30;;;;;;6234938;28;83044;-76
2023/09/08 10:03:10;;;;;;;6.20;5.57;;;22.90;98.10;;;;;;6225148;28;83240;-77
2023/09/08 10:06:13;;;;;;;5.95;5.35;;;22.90;97.80;;;;;;6238205;28;83007;-78
2023/09/08 10:09:19;;;;;;;6.97;5.47;;;22.90;98.30;;;;;;6234483;28;84095;-74
2023/09/08 10:12:21;;;;;;;5.47;4.97;;;22.90;99.90;;;;;;6233870;28;85147;-73
2023/09/08 10:15:24;;;;;;;6.38;5.22;;;23.00;99.90;;;;;;6234074;28;84321;-73
2023/09/08 10:18:29;;;;;;;5.65;5.07;;;23.00;99.80;;;;;;6233687;28;84022;-76
2023/09/08 10:21:33;;;;;;;5.93;4.97;;;23.00;99.90;;;;;;6233727;28;84461;-74
2023/09/08 10:24:36;;;;;;;5.65;4.95;;;23.10;99.90;;;;;;6233926;28;84049;-76
2023/09/08 10:27:39;;;;;;;6.18;5.07;;;23.20;99.90;;;;;;6236238;28;84057;-76
2023/09/08 10:30:42;;;;;;;5.88;5.28;;;23.20;99.90;;;;;;6234036;28;83061;-75
2023/09/08 10:33:46;;;;;;;5.70;5.20;;;23.30;99.90;;;;;;6229065;28;82175;-76
2023/09/08 10:36:49;;;;;;;7.05;5.35;;;23.30;99.80;;;;;;6230560;28;84080;-75
2023/09/08 10:39:51;;;;;;;6.10;5.50;;;23.30;99.80;;;;;;6232531;28;84361;-75
2023/09/08 10:43:08;;;;;;;5.88;5.25;;;23.30;99.00;;;;;;6230247;28;84225;-75
2023/09/08 10:46:10;;;;;;;5.72;5.10;;;23.40;98.00;;;;;;6222313;28;84048;-76
2023/09/08 10:49:14;;;;;;;5.47;4.90;;;23.40;98.10;;;;;;6233955;28;84109;-76
2023/09/08 10:52:16;;;;;;;5.72;4.65;;;23.40;97.40;;;;;;6234453;28;84323;-76
2023/09/08 10:55:35;;;;;;;5.45;4.88;;;23.40;97.00;;;;;;6227976;28;83938;-74
2023/09/08 10:58:42;;;;;;;5.72;4.95;;;23.40;96.70;;;;;;6233670;28;84059;-76
2023/09/08 11:01:44;;;;;;;5.40;4.82;;;23.40;96.50;;;;;;6234036;28;83994;-75
2023/09/08 11:04:48;;;;;;;6.00;5.00;;;23.40;96.30;;;;;;6234491;28;85142;-76
2023/09/08 11:07:52;;;;;;;5.40;4.88;;;23.50;96.20;;;;;;6233669;28;84378;-75
2023/09/08 11:10:55;;;;;;;5.93;4.97;;;23.40;95.90;;;;;;6233020;28;83983;-77
2023/09/08 11:13:57;;;;;;;6.07;5.05;;;23.50;95.80;;;;;;6232462;28;84945;-76
2023/09/08 11:16:59;;;;;;;6.75;5.40;;;23.50;96.00;;;;;;6232079;28;84102;-76
2023/09/08 11:20:08;;;;;;;5.97;4.43;;;23.40;96.20;;;;;;6234471;28;84163;-77
2023/09/08 11:23:11;;;;;;;5.88;4.97;;;23.50;96.20;;;;;;6233892;28;84170;-74
2023/09/08 11:26:13;;;;;;;6.60;5.10;;;23.50;96.40;;;;;;6231684;28;84138;-78
2023/09/08 11:29:16;;;;;;;5.22;4.72;;;23.50;96.80;;;;;;6232671;28;84093;-76
2023/09/08 11:32:18;;;;;;;5.20;4.72;;;23.60;96.50;;;;;;6232670;28;83301;-78
2023/09/08 11:35:22;;;;;;;5.88;4.78;;;23.60;96.30;;;;;;6230666;28;82179;-77
2023/09/08 11:38:27;;;;;;;5.55;4.80;;;23.60;96.00;;;;;;6233176;28;84064;-77
2023/09/08 11:41:29;;;;;;;5.10;4.60;;;23.60;95.20;;;;;;6231999;28;84803;-76
2023/09/08 11:44:31;;;;;;;7.32;5.38;;;23.60;95.00;;;;;;6231370;28;84855;-77
2023/09/08 11:47:33;;;;;;;5.32;4.82;;;23.60;94.70;;;;;;6232425;28;83971;-78
2023/09/08 11:50:36;;;;;;;6.32;5.05;;;23.60;94.40;;;;;;6231530;28;84010;-79
2023/09/08 11:53:39;;;;;;;5.78;4.70;;;23.60;94.80;;;;;;6233090;28;84016;-75
2023/09/08 11:56:41;;;;;;;5.57;5.07;;;23.60;95.00;;;;;;6232740;28;84165;-77
2023/09/08 11:59:46;;;;;;;6.88;5.07;;;23.60;95.10;;;;;;6233780;28;82869;-77
2023/09/08 12:02:48;;;;;;;5.50;5.00;;;23.60;94.40;;;;;;6231253;28;83208;-72
2023/09/08 12:05:53;;;;;;;10.05;5.60;;;23.60;94.40;;;;;;6233214;28;83538;-77
2023/09/08 12:08:56;;;;;;;6.93;4.97;;;23.70;94.60;;;;;;6232517;28;84206;-77
2023/09/08 12:12:01;;;;;;;5.35;4.45;;;23.60;94.80;;;;;;6233468;28;84019;-75
2023/09/08 12:15:03;;;;;;;6.10;4.57;;;23.60;95.20;;;;;;6216286;28;84882;-76
2023/09/08 12:18:07;;;;;;;5.10;4.60;;;23.60;95.50;;;;;;6230963;28;83286;-76
2023/09/08 12:21:11;;;;;;;5.35;4.60;;;23.70;95.80;;;;;;6231840;28;82859;-77
2023/09/08 12:24:13;;;;;;;5.57;4.75;;;23.70;95.80;;;;;;6231844;28;83888;-77
2023/09/08 12:27:16;;;;;;;4.85;4.28;;;23.60;96.00;;;;;;6232952;28;82887;-77
2023/09/08 12:30:19;;;;;;;5.05;4.57;;;23.60;96.20;;;;;;6235877;28;84135;-76
2023/09/08 12:33:21;;;;;;;7.13;4.95;;;23.60;96.30;;;;;;6236454;28;84189;-77
2023/09/08 12:36:25;;;;;;;7.25;5.22;;;23.60;96.40;;;;;;6236810;28;83667;-76
2023/09/08 12:39:27;;;;;;;5.30;4.80;;;23.60;96.60;;;;;;6237325;28;83215;-76
2023/09/08 12:42:29;;;;;;;5.15;4.65;;;23.60;96.70;;;;;;6238004;28;84299;-76
2023/09/08 12:45:32;;;;;;;5.97;4.80;;;23.60;96.90;;;;;;6234772;28;85228;-75
2023/09/08 12:48:33;;;;;;;5.70;4.53;;;23.60;97.00;;;;;;6232576;28;84462;-75
2023/09/08 12:51:37;;;;;;;6.28;5.10;;;23.60;97.10;;;;;;6235341;28;84304;-77
2023/09/08 12:54:39;;;;;;;6.43;4.93;;;23.60;97.20;;;;;;6236622;28;84575;-77
2023/09/08 12:57:41;;;;;;;4.95;4.45;;;23.60;97.30;;;;;;6234619;28;84445;-75
2023/09/08 13:00:45;;;;;;;5.40;4.90;;;23.60;97.40;;;;;;6226146;28;84926;-74
2023/09/08 13:03:48;;;;;;;7.28;5.07;;;23.60;97.50;;;;;;6234822;28;81986;-74
2023/09/08 13:06:52;;;;;;;4.55;4.15;;;23.60;97.70;;;;;;6237120;28;82302;-76
2023/09/08 13:09:55;;;;;;;5.28;4.72;;;23.70;97.80;;;;;;6235802;28;81981;-75
2023/09/08 13:12:57;;;;;;;4.85;4.45;;;23.70;97.90;;;;;;6235312;28;82977;-76
2023/09/08 13:16:01;;;;;;;5.05;4.57;;;23.60;98.00;;;;;;6234045;28;85175;-75
2023/09/08 13:19:03;;;;;;;5.65;4.60;;;23.70;98.10;;;;;;6235532;28;83368;-76
2023/09/08 13:22:08;;;;;;;5.82;4.72;;;23.70;98.30;;;;;;6234923;28;83978;-76
2023/09/08 13:25:10;;;;;;;6.50;5.35;;;23.60;98.30;;;;;;6235086;28;83243;-77
2023/09/08 13:28:13;;;;;;;6.38;5.05;;;23.60;98.50;;;;;;6235926;28;83943;-76
2023/09/08 13:31:17;;;;;;;5.18;4.68;;;23.70;98.50;;;;;;6235593;28;83259;-77
2023/09/08 13:34:21;;;;;;;5.78;4.78;;;23.60;98.50;;;;;;6235184;28;85928;-78
2023/09/08 13:37:26;;;;;;;4.72;4.30;;;23.60;98.60;;;;;;6235379;28;82905;-76
2023/09/08 13:40:29;;;;;;;5.38;4.70;;;23.60;98.60;;;;;;6234709;28;85301;-77
2023/09/08 13:43:32;;;;;;;4.90;4.45;;;23.70;98.70;;;;;;6233700;28;81963;-75
2023/09/08 13:46:35;;;;;;;6.47;4.82;;;23.60;98.80;;;;;;6233944;28;83883;-77
2023/09/08 13:49:38;;;;;;;5.35;4.68;;;23.60;98.80;;;;;;6234765;28;84914;-78
2023/09/08 13:52:43;;;;;;;5.13;4.63;;;23.70;98.90;;;;;;6223935;28;82953;-77
2023/09/08 13:55:47;;;;;;;4.78;4.38;;;23.60;99.00;;;;;;6234708;28;82947;-77
2023/09/08 13:58:51;;;;;;;4.55;4.15;;;23.70;99.10;;;;;;6234539;28;81959;-77
2023/09/08 14:01:55;;;;;;;5.47;4.45;;;23.70;99.10;;;;;;6233011;28;83031;-76
2023/09/08 14:04:58;;;;;;;5.57;4.22;;;23.70;99.10;;;;;;6234180;28;83039;-77
2023/09/08 14:08:04;;;;;;;4.47;4.07;;;23.60;99.10;;;;;;6235494;28;82225;-79
2023/09/08 14:11:07;;;;;;;4.85;4.35;;;23.70;99.10;;;;;;6234037;28;83821;-80
2023/09/08 14:14:11;;;;;;;4.40;4.00;;;23.70;99.40;;;;;;6233759;28;82855;-78
2023/09/08 14:17:15;;;;;;;6.35;4.55;;;23.70;99.90;;;;;;6230172;28;84016;-79
2023/09/08 14:20:19;;;;;;;5.88;4.50;;;23.70;99.60;;;;;;6225068;28;82974;-79
2023/09/08 14:23:24;;;;;;;7.20;4.60;;;23.70;99.60;;;;;;6233968;28;82930;-78
2023/09/08 14:26:28;;;;;;;6.05;4.25;;;23.70;99.80;;;;;;6235037;28;82525;-78
2023/09/08 14:29:32;;;;;;;6.57;4.38;;;23.70;99.90;;;;;;6233887;28;82080;-78
2023/09/08 14:32:35;;;;;;;4.57;4.10;;;23.60;99.90;;;;;;6232569;28;83127;-79
2023/09/08 14:35:44;;;;;;;12.95;6.20;;;23.70;99.90;;;;;;6234463;28;83507;-75
2023/09/08 14:38:49;;;;;;;20.05;8.52;;;23.60;99.90;;;;;;6230605;28;82414;-76
2023/09/08 14:41:56;;;;;;;9.68;5.88;;;23.70;99.90;;;;;;6230700;28;82076;-79
2023/09/08 14:45:00;;;;;;;12.60;6.63;;;23.70;99.90;;;;;;6234183;28;83036;-79
2023/09/08 14:48:03;;;;;;;11.35;6.13;;;23.70;99.90;;;;;;6232711;28;84598;-77
2023/09/08 14:51:07;;;;;;;10.48;5.75;;;23.70;99.90;;;;;;6234170;28;84260;-78
2023/09/08 14:54:12;;;;;;;9.00;5.90;;;23.80;99.90;;;;;;6234202;28;83126;-77
2023/09/08 14:57:15;;;;;;;11.70;6.72;;;23.80;99.90;;;;;;6233488;28;83177;-78
2023/09/08 15:00:19;;;;;;;12.88;7.03;;;23.80;99.90;;;;;;6232966;28;82957;-78
2023/09/08 15:03:23;;;;;;;11.45;6.28;;;23.80;99.90;;;;;;6233628;28;83002;-78
2023/09/08 15:06:26;;;;;;;14.50;6.82;;;23.80;99.90;;;;;;6232327;28;82961;-78
2023/09/08 15:09:31;;;;;;;11.20;6.18;;;23.80;99.90;;;;;;6233127;28;82838;-79
2023/09/08 15:12:36;;;;;;;9.88;6.07;;;23.80;99.90;;;;;;6232733;28;82935;-78
2023/09/08 15:15:39;;;;;;;10.27;6.30;;;23.80;99.90;;;;;;6233182;28;83002;-77
2023/09/08 15:18:43;;;;;;;9.07;6.40;;;23.80;99.90;;;;;;6230448;28;82967;-78
2023/09/08 15:21:47;;;;;;;12.43;6.40;;;23.80;99.90;;;;;;6221975;28;81875;-77
2023/09/08 15:24:52;;;;;;;10.05;6.18;;;23.80;99.90;;;;;;6224565;28;83327;-77
2023/09/08 15:27:55;;;;;;;7.43;5.40;;;23.80;99.90;;;;;;6223673;28;82097;-77
2023/09/08 15:30:59;;;;;;;9.07;5.93;;;23.80;99.90;;;;;;6232766;28;82077;-77
2023/09/08 15:34:02;;;;;;;9.48;5.90;;;23.80;99.90;;;;;;6231893;28;83463;-76
2023/09/08 15:37:06;;;;;;;9.40;5.57;;;23.70;99.90;;;;;;6232832;28;82950;-76
2023/09/08 15:40:14;;;;;;;9.52;6.10;;;23.80;99.90;;;;;;6233201;28;83603;-77
2023/09/08 15:43:17;;;;;;;11.82;5.50;;;23.80;99.90;;;;;;6233411;28;82953;-76
2023/09/08 15:46:21;;;;;;;9.30;5.55;;;23.80;99.90;;;;;;6232944;28;83613;-76
2023/09/08 15:49:24;;;;;;;9.63;5.60;;;23.80;99.90;;;;;;6232443;28;83959;-77
2023/09/08 15:52:27;;;;;;;11.20;5.82;;;23.80;99.90;;;;;;6235003;28;82737;-77